sensor_id;sensor_type;location;lat;lon;timestamp;pressure;altitude;pressure_sealevel;temperature;humidity
45247;BME280;31529;51.158;7.354;2022-12-11T00:00:24;97347.03;;;1.93;81.79
45247;BME280;31529;51.158;7.354;2022-12-11T00:00:55;97346.03;;;1.94;82.13
45247;BME280;31529;51.158;7.354;2022-12-11T00:01:26;97348.66;;;1.94;81.47
45247;BME280;31529;51.158;7.354;2022-12-11T00:02:00;97349.22;;;1.97;81.65
45247;BME280;31529;51.158;7.354;2022-12-11T00:02:34;97351.84;;;1.97;81.03
45247;BME280;31529;51.158;7.354;2022-12-11T00:03:07;97357.66;;;1.99;81.84
45247;BME280;31529;51.158;7.354;2022-12-11T00:03:40;97351.13;;;2.01;81.15
45247;BME280;31529;51.158;7.354;2022-12-11T00:04:13;97354.00;;;2.00;80.59
45247;BME280;31529;51.158;7.354;2022-12-11T00:04:51;97352.38;;;1.99;80.71
45247;BME280;31529;51.158;7.354;2022-12-11T00:05:31;97349.22;;;1.97;81.17
45247;BME280;31529;51.158;7.354;2022-12-11T00:06:09;97353.19;;;1.99;80.78
45247;BME280;31529;51.158;7.354;2022-12-11T00:06:42;97362.91;;;1.99;80.86
45247;BME280;31529;51.158;7.354;2022-12-11T00:07:13;97351.59;;;1.98;80.64
45247;BME280;31529;51.158;7.354;2022-12-11T00:07:45;97349.22;;;1.97;81.01
45247;BME280;31529;51.158;7.354;2022-12-11T00:08:16;97354.22;;;1.98;80.76
45247;BME280;31529;51.158;7.354;2022-12-11T00:08:51;97357.66;;;1.99;80.68
45247;BME280;31529;51.158;7.354;2022-12-11T00:09:24;97358.44;;;1.99;81.22
45247;BME280;31529;51.158;7.354;2022-12-11T00:09:55;97346.34;;;1.98;81.20
45247;BME280;31529;51.158;7.354;2022-12-11T00:10:28;97347.91;;;1.99;80.71
45247;BME280;31529;51.158;7.354;2022-12-11T00:11:00;97352.38;;;1.99;81.38
45247;BME280;31529;51.158;7.354;2022-12-11T00:11:31;97351.59;;;1.98;81.20
45247;BME280;31529;51.158;7.354;2022-12-11T00:12:05;97360.53;;;1.97;80.60
45247;BME280;31529;51.158;7.354;2022-12-11T00:12:37;97359.72;;;1.97;81.38
45247;BME280;31529;51.158;7.354;2022-12-11T00:13:08;97354.47;;;1.97;80.97
45247;BME280;31529;51.158;7.354;2022-12-11T00:13:40;97350.50;;;1.94;81.26
45247;BME280;31529;51.158;7.354;2022-12-11T00:14:11;97359.19;;;1.94;81.04
45247;BME280;31529;51.158;7.354;2022-12-11T00:14:43;97355.75;;;1.94;81.65
45247;BME280;31529;51.158;7.354;2022-12-11T00:15:16;97361.25;;;1.92;81.20
45247;BME280;31529;51.158;7.354;2022-12-11T00:15:47;97357.03;;;1.91;81.44
45247;BME280;31529;51.158;7.354;2022-12-11T00:16:19;97346.50;;;1.91;81.41
45247;BME280;31529;51.158;7.354;2022-12-11T00:16:51;97366.75;;;1.91;81.38
45247;BME280;31529;51.158;7.354;2022-12-11T00:17:23;97354.66;;;1.90;81.72
45247;BME280;31529;51.158;7.354;2022-12-11T00:17:54;97355.44;;;1.90;81.68
45247;BME280;31529;51.158;7.354;2022-12-11T00:18:27;97360.69;;;1.90;81.66
45247;BME280;31529;51.158;7.354;2022-12-11T00:18:58;97360.47;;;1.92;81.73
45247;BME280;31529;51.158;7.354;2022-12-11T00:19:31;97356.00;;;1.92;81.56
45247;BME280;31529;51.158;7.354;2022-12-11T00:20:02;97365.47;;;1.93;81.34
45247;BME280;31529;51.158;7.354;2022-12-11T00:20:34;97353.38;;;1.92;81.46
45247;BME280;31529;51.158;7.354;2022-12-11T00:21:11;97360.47;;;1.92;81.61
45247;BME280;31529;51.158;7.354;2022-12-11T00:21:44;97354.94;;;1.93;81.02
45247;BME280;31529;51.158;7.354;2022-12-11T00:22:15;97347.03;;;1.93;81.72
45247;BME280;31529;51.158;7.354;2022-12-11T00:22:46;97347.03;;;1.93;81.41
45247;BME280;31529;51.158;7.354;2022-12-11T00:23:17;97253.53;;;1.25;81.71
45247;BME280;31529;51.158;7.354;2022-12-11T00:23:48;97349.69;;;1.93;81.50
45247;BME280;31529;51.158;7.354;2022-12-11T00:24:19;97353.91;;;1.94;81.07
45247;BME280;31529;51.158;7.354;2022-12-11T00:24:50;97348.66;;;1.94;81.17
45247;BME280;31529;51.158;7.354;2022-12-11T00:25:21;97352.06;;;1.95;81.25
45247;BME280;31529;51.158;7.354;2022-12-11T00:25:53;97351.28;;;1.94;81.13
45247;BME280;31529;51.158;7.354;2022-12-11T00:26:24;97355.75;;;1.94;80.87
45247;BME280;31529;51.158;7.354;2022-12-11T00:26:55;97347.03;;;1.93;81.42
45247;BME280;31529;51.158;7.354;2022-12-11T00:27:26;97352.88;;;1.95;81.41
45247;BME280;31529;51.158;7.354;2022-12-11T00:27:57;97349.44;;;1.95;81.19
45247;BME280;31529;51.158;7.354;2022-12-11T00:28:28;97347.63;;;1.95;81.08
45247;BME280;31529;51.158;7.354;2022-12-11T00:28:59;97353.13;;;1.94;80.97
45247;BME280;31529;51.158;7.354;2022-12-11T00:29:30;97350.50;;;1.94;81.36
45247;BME280;31529;51.158;7.354;2022-12-11T00:30:02;97359.72;;;1.97;81.68
45247;BME280;31529;51.158;7.354;2022-12-11T00:30:33;97359.97;;;1.95;81.18
45247;BME280;31529;51.158;7.354;2022-12-11T00:31:10;97255.69;;;1.28;80.99
45247;BME280;31529;51.158;7.354;2022-12-11T00:31:44;97356.53;;;1.94;81.39
45247;BME280;31529;51.158;7.354;2022-12-11T00:32:15;97352.06;;;1.95;81.26
45247;BME280;31529;51.158;7.354;2022-12-11T00:32:46;97363.41;;;1.95;81.77
45247;BME280;31529;51.158;7.354;2022-12-11T00:33:17;97361.03;;;1.94;81.74
45247;BME280;31529;51.158;7.354;2022-12-11T00:33:48;97363.41;;;1.95;81.25
45247;BME280;31529;51.158;7.354;2022-12-11T00:34:20;97357.34;;;1.95;80.92
45247;BME280;31529;51.158;7.354;2022-12-11T00:34:51;97358.16;;;1.95;81.44
45247;BME280;31529;51.158;7.354;2022-12-11T00:35:23;97365.00;;;1.97;81.65
45247;BME280;31529;51.158;7.354;2022-12-11T00:35:54;97359.72;;;1.97;81.21
45247;BME280;31529;51.158;7.354;2022-12-11T00:36:25;97356.31;;;1.96;81.81
45247;BME280;31529;51.158;7.354;2022-12-11T00:36:56;97360.53;;;1.97;81.26
45247;BME280;31529;51.158;7.354;2022-12-11T00:37:28;97355.81;;;1.99;81.52
45247;BME280;31529;51.158;7.354;2022-12-11T00:37:59;97357.66;;;1.99;81.42
45247;BME280;31529;51.158;7.354;2022-12-11T00:38:30;97351.38;;;2.00;80.90
45247;BME280;31529;51.158;7.354;2022-12-11T00:39:02;97366.09;;;2.01;80.90
45247;BME280;31529;51.158;7.354;2022-12-11T00:39:34;97359.50;;;1.98;81.09
45247;BME280;31529;51.158;7.354;2022-12-11T00:40:06;97364.53;;;2.00;81.52
45247;BME280;31529;51.158;7.354;2022-12-11T00:40:38;97361.34;;;1.98;80.88
45247;BME280;31529;51.158;7.354;2022-12-11T00:41:09;97355.03;;;1.99;81.10
45247;BME280;31529;51.158;7.354;2022-12-11T00:41:41;97362.91;;;1.99;81.41
45247;BME280;31529;51.158;7.354;2022-12-11T00:42:12;97357.66;;;1.99;81.31
45247;BME280;31529;51.158;7.354;2022-12-11T00:42:43;97363.47;;;2.01;81.08
45247;BME280;31529;51.158;7.354;2022-12-11T00:43:14;97355.03;;;1.99;81.04
45247;BME280;31529;51.158;7.354;2022-12-11T00:43:46;97362.13;;;1.98;81.14
45247;BME280;31529;51.158;7.354;2022-12-11T00:44:17;97362.13;;;1.98;81.04
45247;BME280;31529;51.158;7.354;2022-12-11T00:44:48;97362.91;;;1.99;81.15
45247;BME280;31529;51.158;7.354;2022-12-11T00:45:20;97358.69;;;1.98;81.21
45247;BME280;31529;51.158;7.354;2022-12-11T00:45:51;97357.88;;;1.97;80.73
45247;BME280;31529;51.158;7.354;2022-12-11T00:46:22;97358.94;;;1.96;80.57
45247;BME280;31529;51.158;7.354;2022-12-11T00:46:53;97363.41;;;1.95;80.92
45247;BME280;31529;51.158;7.354;2022-12-11T00:47:24;97367.63;;;1.97;80.76
45247;BME280;31529;51.158;7.354;2022-12-11T00:47:56;97359.72;;;1.97;80.99
45247;BME280;31529;51.158;7.354;2022-12-11T00:48:27;97357.09;;;1.97;81.34
45247;BME280;31529;51.158;7.354;2022-12-11T00:48:58;97368.41;;;1.97;80.90
45247;BME280;31529;51.158;7.354;2022-12-11T00:49:29;97358.94;;;1.96;81.02
45247;BME280;31529;51.158;7.354;2022-12-11T00:50:00;97359.19;;;1.94;81.25
45247;BME280;31529;51.158;7.354;2022-12-11T00:50:31;97359.19;;;1.94;80.98
45247;BME280;31529;51.158;7.354;2022-12-11T00:51:03;97351.28;;;1.94;80.68
45247;BME280;31529;51.158;7.354;2022-12-11T00:51:34;97361.81;;;1.94;81.07
45247;BME280;31529;51.158;7.354;2022-12-11T00:52:05;97359.97;;;1.95;81.10
45247;BME280;31529;51.158;7.354;2022-12-11T00:52:36;97360.78;;;1.95;81.09
45247;BME280;31529;51.158;7.354;2022-12-11T00:53:08;97361.56;;;1.96;81.47
45247;BME280;31529;51.158;7.354;2022-12-11T00:53:39;97364.19;;;1.96;81.44
45247;BME280;31529;51.158;7.354;2022-12-11T00:54:10;97356.06;;;1.98;81.00
45247;BME280;31529;51.158;7.354;2022-12-11T00:54:41;97365.78;;;1.97;81.48
45247;BME280;31529;51.158;7.354;2022-12-11T00:55:12;97356.88;;;1.98;81.08
45247;BME280;31529;51.158;7.354;2022-12-11T00:55:43;97361.34;;;1.98;80.89
45247;BME280;31529;51.158;7.354;2022-12-11T00:56:16;97354.47;;;1.97;81.12
45247;BME280;31529;51.158;7.354;2022-12-11T00:56:49;97270.81;;;1.38;81.18
45247;BME280;31529;51.158;7.354;2022-12-11T00:57:20;97366.03;;;1.95;81.09
45247;BME280;31529;51.158;7.354;2022-12-11T00:57:51;97362.59;;;1.95;81.11
45247;BME280;31529;51.158;7.354;2022-12-11T00:58:22;97358.94;;;1.96;81.66
45247;BME280;31529;51.158;7.354;2022-12-11T00:58:54;97367.84;;;1.95;81.05
45247;BME280;31529;51.158;7.354;2022-12-11T00:59:25;97362.84;;;1.93;81.49
45247;BME280;31529;51.158;7.354;2022-12-11T00:59:57;97354.38;;;1.91;81.71
45247;BME280;31529;51.158;7.354;2022-12-11T01:00:29;97354.66;;;1.90;81.48
45247;BME280;31529;51.158;7.354;2022-12-11T01:01:09;97357.28;;;1.90;81.85
45247;BME280;31529;51.158;7.354;2022-12-11T01:01:42;97359.09;;;1.89;82.03
45247;BME280;31529;51.158;7.354;2022-12-11T01:02:13;97358.31;;;1.89;81.95
45247;BME280;31529;51.158;7.354;2022-12-11T01:02:47;97355.44;;;1.90;81.77
45247;BME280;31529;51.158;7.354;2022-12-11T01:03:19;97352.81;;;1.90;82.45
45247;BME280;31529;51.158;7.354;2022-12-11T01:03:50;97347.56;;;1.90;82.12
45247;BME280;31529;51.158;7.354;2022-12-11T01:04:22;97344.91;;;1.90;81.86
45247;BME280;31529;51.158;7.354;2022-12-11T01:04:54;97347.56;;;1.90;82.19
45247;BME280;31529;51.158;7.354;2022-12-11T01:05:26;97358.06;;;1.90;82.11
45247;BME280;31529;51.158;7.354;2022-12-11T01:05:57;97353.03;;;1.89;82.03
45247;BME280;31529;51.158;7.354;2022-12-11T01:06:28;97337.25;;;1.89;82.24
45247;BME280;31529;51.158;7.354;2022-12-11T01:06:59;97345.72;;;1.91;82.46
45247;BME280;31529;51.158;7.354;2022-12-11T01:07:30;97344.91;;;1.90;82.63
45247;BME280;31529;51.158;7.354;2022-12-11T01:08:02;97340.69;;;1.89;82.04
45247;BME280;31529;51.158;7.354;2022-12-11T01:08:33;97343.31;;;1.89;82.72
45247;BME280;31529;51.158;7.354;2022-12-11T01:09:04;97341.50;;;1.90;82.58
45247;BME280;31529;51.158;7.354;2022-12-11T01:09:54;97346.75;;;1.90;82.69
45247;BME280;31529;51.158;7.354;2022-12-11T01:10:43;97344.38;;;1.88;82.20
45247;BME280;31529;51.158;7.354;2022-12-11T01:11:14;97350.41;;;1.89;82.51
45247;BME280;31529;51.158;7.354;2022-12-11T01:11:46;97342.53;;;1.89;82.43
45247;BME280;31529;51.158;7.354;2022-12-11T01:12:17;97343.31;;;1.89;82.45
45247;BME280;31529;51.158;7.354;2022-12-11T01:12:49;97216.44;;;1.04;82.38
45247;BME280;31529;51.158;7.354;2022-12-11T01:13:25;97342.28;;;1.90;82.59
45247;BME280;31529;51.158;7.354;2022-12-11T01:13:56;97335.19;;;1.91;82.58
45247;BME280;31529;51.158;7.354;2022-12-11T01:14:27;97337.56;;;1.92;82.12
45247;BME280;31529;51.158;7.354;2022-12-11T01:14:58;97341.78;;;1.93;82.50
45247;BME280;31529;51.158;7.354;2022-12-11T01:15:33;97337.34;;;1.94;82.77
45247;BME280;31529;51.158;7.354;2022-12-11T01:16:10;97340.53;;;1.96;82.42
45247;BME280;31529;51.158;7.354;2022-12-11T01:16:44;97342.09;;;1.97;81.91
45247;BME280;31529;51.158;7.354;2022-12-11T01:17:15;97334.22;;;1.97;81.82
45247;BME280;31529;51.158;7.354;2022-12-11T01:17:46;97332.88;;;1.94;82.19
45247;BME280;31529;51.158;7.354;2022-12-11T01:18:17;97336.53;;;1.93;82.84
45247;BME280;31529;51.158;7.354;2022-12-11T01:18:48;97337.56;;;1.92;82.64
45247;BME280;31529;51.158;7.354;2022-12-11T01:19:19;97328.63;;;1.93;82.44
45247;BME280;31529;51.158;7.354;2022-12-11T01:19:52;97343.16;;;1.96;82.51
45247;BME280;31529;51.158;7.354;2022-12-11T01:20:24;97335.03;;;1.98;82.01
45247;BME280;31529;51.158;7.354;2022-12-11T01:20:57;97341.31;;;1.97;82.47
45247;BME280;31529;51.158;7.354;2022-12-11T01:21:28;97338.69;;;1.97;82.39
45247;BME280;31529;51.158;7.354;2022-12-11T01:22:00;97342.38;;;1.95;81.86
45247;BME280;31529;51.158;7.354;2022-12-11T01:22:31;97343.16;;;1.96;82.25
45247;BME280;31529;51.158;7.354;2022-12-11T01:23:02;97329.44;;;1.94;82.17
45247;BME280;31529;51.158;7.354;2022-12-11T01:23:33;97342.38;;;1.95;81.99
45247;BME280;31529;51.158;7.354;2022-12-11T01:24:04;97335.50;;;1.94;82.83
45247;BME280;31529;51.158;7.354;2022-12-11T01:24:35;97336.78;;;1.92;82.50
45247;BME280;31529;51.158;7.354;2022-12-11T01:25:07;97344.41;;;1.93;82.41
45247;BME280;31529;51.158;7.354;2022-12-11T01:25:40;97343.88;;;1.91;82.42
45247;BME280;31529;51.158;7.354;2022-12-11T01:26:13;97340.22;;;1.92;83.01
45247;BME280;31529;51.158;7.354;2022-12-11T01:26:45;97335.19;;;1.91;82.80
45247;BME280;31529;51.158;7.354;2022-12-11T01:27:16;97339.91;;;1.89;82.76
45247;BME280;31529;51.158;7.354;2022-12-11T01:27:48;97341.75;;;1.88;82.82
45247;BME280;31529;51.158;7.354;2022-12-11T01:28:21;97342.28;;;1.90;82.90
45247;BME280;31529;51.158;7.354;2022-12-11T01:28:52;97338.59;;;1.91;82.77
45247;BME280;31529;51.158;7.354;2022-12-11T01:29:23;97345.47;;;1.92;82.17
45247;BME280;31529;51.158;7.354;2022-12-11T01:29:54;97341.22;;;1.91;82.73
45247;BME280;31529;51.158;7.354;2022-12-11T01:30:25;97342.84;;;1.92;82.78
45247;BME280;31529;51.158;7.354;2022-12-11T01:30:56;97344.41;;;1.93;82.99
45247;BME280;31529;51.158;7.354;2022-12-11T01:31:27;97331.25;;;1.93;82.66
45247;BME280;31529;51.158;7.354;2022-12-11T01:31:58;97339.97;;;1.94;82.87
45247;BME280;31529;51.158;7.354;2022-12-11T01:32:29;97344.41;;;1.93;82.39
45247;BME280;31529;51.158;7.354;2022-12-11T01:33:01;97341.22;;;1.91;82.41
45247;BME280;31529;51.158;7.354;2022-12-11T01:33:33;97341.22;;;1.91;83.14
45247;BME280;31529;51.158;7.354;2022-12-11T01:34:04;97346.50;;;1.91;82.70
45247;BME280;31529;51.158;7.354;2022-12-11T01:34:35;97342.28;;;1.90;82.76
45247;BME280;31529;51.158;7.354;2022-12-11T01:35:06;97338.06;;;1.89;82.99
45247;BME280;31529;51.158;7.354;2022-12-11T01:35:38;97340.69;;;1.89;83.03
45247;BME280;31529;51.158;7.354;2022-12-11T01:36:11;97350.19;;;1.90;83.22
45247;BME280;31529;51.158;7.354;2022-12-11T01:36:43;97345.72;;;1.91;83.22
45247;BME280;31529;51.158;7.354;2022-12-11T01:37:14;97355.44;;;1.90;83.26
45247;BME280;31529;51.158;7.354;2022-12-11T01:37:46;97346.50;;;1.91;83.20
45247;BME280;31529;51.158;7.354;2022-12-11T01:38:17;97342.28;;;1.90;83.08
45247;BME280;31529;51.158;7.354;2022-12-11T01:38:48;97136.88;;;0.53;82.34
45247;BME280;31529;51.158;7.354;2022-12-11T01:39:20;97342.53;;;1.89;83.31
45247;BME280;31529;51.158;7.354;2022-12-11T01:39:51;97343.00;;;1.86;82.92
45247;BME280;31529;51.158;7.354;2022-12-11T01:40:22;97341.41;;;1.85;83.11
45247;BME280;31529;51.158;7.354;2022-12-11T01:40:53;97341.75;;;1.88;83.54
45247;BME280;31529;51.158;7.354;2022-12-11T01:41:24;97343.31;;;1.89;83.06
45247;BME280;31529;51.158;7.354;2022-12-11T01:41:59;97345.94;;;1.89;83.16
45247;BME280;31529;51.158;7.354;2022-12-11T01:42:31;97343.06;;;1.91;82.82
45247;BME280;31529;51.158;7.354;2022-12-11T01:43:02;97347.31;;;1.92;82.98
45247;BME280;31529;51.158;7.354;2022-12-11T01:43:33;97348.88;;;1.93;83.20
45247;BME280;31529;51.158;7.354;2022-12-11T01:45:58;97342.84;;;1.92;83.08
45247;BME280;31529;51.158;7.354;2022-12-11T01:46:30;97347.03;;;1.93;82.95
45247;BME280;31529;51.158;7.354;2022-12-11T01:47:03;97345.22;;;1.94;83.40
45247;BME280;31529;51.158;7.354;2022-12-11T01:47:34;97341.78;;;1.93;83.19
45247;BME280;31529;51.158;7.354;2022-12-11T01:48:09;97349.44;;;1.95;82.91
45247;BME280;31529;51.158;7.354;2022-12-11T01:48:43;97344.19;;;1.95;83.29
45247;BME280;31529;51.158;7.354;2022-12-11T01:49:15;97341.56;;;1.95;83.11
45247;BME280;31529;51.158;7.354;2022-12-11T01:49:48;97344.41;;;1.93;83.12
45247;BME280;31529;51.158;7.354;2022-12-11T01:50:19;97337.81;;;1.91;83.40
45247;BME280;31529;51.158;7.354;2022-12-11T01:50:57;97347.03;;;1.93;83.20
45247;BME280;31529;51.158;7.354;2022-12-11T01:51:32;97344.91;;;1.90;82.73
45247;BME280;31529;51.158;7.354;2022-12-11T01:52:08;97332.25;;;1.87;82.87
45247;BME280;31529;51.158;7.354;2022-12-11T01:52:43;97335.97;;;1.91;83.42
45247;BME280;31529;51.158;7.354;2022-12-11T01:53:24;97335.97;;;1.91;83.76
45247;BME280;31529;51.158;7.354;2022-12-11T01:54:19;97334.16;;;1.92;83.88
45247;BME280;31529;51.158;7.354;2022-12-11T01:54:53;97342.28;;;1.90;83.43
45247;BME280;31529;51.158;7.354;2022-12-11T01:55:24;97342.84;;;1.92;83.33
45247;BME280;31529;51.158;7.354;2022-12-11T01:55:56;97340.22;;;1.92;83.30
45247;BME280;31529;51.158;7.354;2022-12-11T01:56:28;97342.59;;;1.94;83.58
45247;BME280;31529;51.158;7.354;2022-12-11T01:57:03;97337.56;;;1.92;83.56
45247;BME280;31529;51.158;7.354;2022-12-11T01:57:38;97336.53;;;1.93;83.53
45247;BME280;31529;51.158;7.354;2022-12-11T01:58:13;97336.28;;;1.95;83.25
45247;BME280;31529;51.158;7.354;2022-12-11T01:58:46;97336.06;;;1.97;84.02
45247;BME280;31529;51.158;7.354;2022-12-11T01:59:22;97341.31;;;1.97;83.47
45247;BME280;31529;51.158;7.354;2022-12-11T01:59:56;97332.41;;;1.98;83.75
45247;BME280;31529;51.158;7.354;2022-12-11T02:00:27;97330.78;;;1.97;83.34
45247;BME280;31529;51.158;7.354;2022-12-11T02:00:59;97333.41;;;1.97;83.52
45247;BME280;31529;51.158;7.354;2022-12-11T02:01:45;97332.41;;;1.98;83.25
45247;BME280;31529;51.158;7.354;2022-12-11T02:02:25;97336.59;;;1.99;83.29
45247;BME280;31529;51.158;7.354;2022-12-11T02:02:58;97327.13;;;1.98;83.66
45247;BME280;31529;51.158;7.354;2022-12-11T02:03:30;97328.94;;;1.97;83.48
45247;BME280;31529;51.158;7.354;2022-12-11T02:04:01;97336.84;;;1.97;83.58
45247;BME280;31529;51.158;7.354;2022-12-11T02:04:33;97331.34;;;1.99;83.46
45247;BME280;31529;51.158;7.354;2022-12-11T02:05:05;97329.75;;;1.98;83.37
45247;BME280;31529;51.158;7.354;2022-12-11T02:05:37;97336.59;;;1.99;83.52
45247;BME280;31529;51.158;7.354;2022-12-11T02:07:19;97332.13;;;1.99;83.42
45247;BME280;31529;51.158;7.354;2022-12-11T02:07:51;97334.75;;;1.99;83.20
45247;BME280;31529;51.158;7.354;2022-12-11T02:08:26;97329.50;;;1.99;83.15
45247;BME280;31529;51.158;7.354;2022-12-11T02:08:57;97333.72;;;2.00;83.52
45247;BME280;31529;51.158;7.354;2022-12-11T02:09:30;97334.53;;;2.01;83.12
45247;BME280;31529;51.158;7.354;2022-12-11T02:10:03;97331.88;;;2.01;83.46
45247;BME280;31529;51.158;7.354;2022-12-11T02:10:42;97331.66;;;2.02;83.33
45247;BME280;31529;51.158;7.354;2022-12-11T02:11:19;97330.63;;;2.03;83.52
45247;BME280;31529;51.158;7.354;2022-12-11T02:13:03;97334.34;;;2.07;83.25
45247;BME280;31529;51.158;7.354;2022-12-11T02:13:54;97330.13;;;2.06;82.93
45247;BME280;31529;51.158;7.354;2022-12-11T02:14:55;97331.50;;;2.09;83.47
45247;BME280;31529;51.158;7.354;2022-12-11T02:16:05;97334.66;;;2.11;83.28
45247;BME280;31529;51.158;7.354;2022-12-11T02:16:49;97337.03;;;2.12;83.20
45247;BME280;31529;51.158;7.354;2022-12-11T02:18:32;97331.78;;;2.12;82.62
45247;BME280;31529;51.158;7.354;2022-12-11T02:20:56;97334.16;;;2.14;83.23
45247;BME280;31529;51.158;7.354;2022-12-11T02:21:51;97334.16;;;2.14;82.38
45247;BME280;31529;51.158;7.354;2022-12-11T02:22:56;97337.84;;;2.13;82.55
45247;BME280;31529;51.158;7.354;2022-12-11T02:27:27;97334.66;;;2.11;83.25
45247;BME280;31529;51.158;7.354;2022-12-11T02:28:33;97328.34;;;2.12;83.37
45247;BME280;31529;51.158;7.354;2022-12-11T02:29:16;97337.03;;;2.12;83.12
45247;BME280;31529;51.158;7.354;2022-12-11T02:29:53;97337.84;;;2.13;82.72
45247;BME280;31529;51.158;7.354;2022-12-11T02:30:48;97339.66;;;2.12;82.91
45247;BME280;31529;51.158;7.354;2022-12-11T02:31:34;97330.97;;;2.12;83.16
45247;BME280;31529;51.158;7.354;2022-12-11T02:32:26;97333.84;;;2.10;82.88
45247;BME280;31529;51.158;7.354;2022-12-11T02:33:03;97337.31;;;2.11;82.86
45247;BME280;31529;51.158;7.354;2022-12-11T02:33:40;97335.47;;;2.11;83.16
45247;BME280;31529;51.158;7.354;2022-12-11T02:34:27;97334.66;;;2.11;83.70
45247;BME280;31529;51.158;7.354;2022-12-11T02:35:06;97333.63;;;2.12;83.05
45247;BME280;31529;51.158;7.354;2022-12-11T02:35:46;97333.63;;;2.12;83.61
45247;BME280;31529;51.158;7.354;2022-12-11T02:36:20;97335.47;;;2.11;83.08
45247;BME280;31529;51.158;7.354;2022-12-11T02:36:56;97336.25;;;2.12;82.92
45247;BME280;31529;51.158;7.354;2022-12-11T02:37:31;97337.03;;;2.12;83.11
45247;BME280;31529;51.158;7.354;2022-12-11T02:38:12;97333.63;;;2.12;83.52
45247;BME280;31529;51.158;7.354;2022-12-11T02:38:49;97335.22;;;2.13;83.20
45247;BME280;31529;51.158;7.354;2022-12-11T02:39:23;97332.59;;;2.13;82.81
45247;BME280;31529;51.158;7.354;2022-12-11T02:39:57;97331.53;;;2.14;83.55
45247;BME280;31529;51.158;7.354;2022-12-11T02:40:29;97329.97;;;2.13;83.39
45247;BME280;31529;51.158;7.354;2022-12-11T02:41:02;97329.72;;;2.14;83.23
45247;BME280;31529;51.158;7.354;2022-12-11T02:41:35;97328.91;;;2.14;83.37
45247;BME280;31529;51.158;7.354;2022-12-11T02:42:07;97332.34;;;2.14;82.91
45247;BME280;31529;51.158;7.354;2022-12-11T02:42:40;97330.50;;;2.15;83.12
45247;BME280;31529;51.158;7.354;2022-12-11T02:43:13;97332.09;;;2.16;82.82
45247;BME280;31529;51.158;7.354;2022-12-11T02:43:47;97330.28;;;2.17;83.60
45247;BME280;31529;51.158;7.354;2022-12-11T02:44:22;97326.81;;;2.16;83.40
45247;BME280;31529;51.158;7.354;2022-12-11T02:44:56;97327.63;;;2.17;83.64
45247;BME280;31529;51.158;7.354;2022-12-11T02:45:31;97319.47;;;2.18;83.61
45247;BME280;31529;51.158;7.354;2022-12-11T02:46:04;97325.56;;;2.19;83.25
45247;BME280;31529;51.158;7.354;2022-12-11T02:46:37;97324.75;;;2.18;83.27
45247;BME280;31529;51.158;7.354;2022-12-11T02:47:10;97322.09;;;2.18;83.12
45247;BME280;31529;51.158;7.354;2022-12-11T02:47:45;97323.16;;;2.17;82.83
45247;BME280;31529;51.158;7.354;2022-12-11T02:48:18;97318.69;;;2.18;83.26
45247;BME280;31529;51.158;7.354;2022-12-11T02:48:52;97318.69;;;2.18;83.16
45247;BME280;31529;51.158;7.354;2022-12-11T02:49:25;97317.09;;;2.17;82.79
45247;BME280;31529;51.158;7.354;2022-12-11T02:49:58;97320.53;;;2.17;82.82
45247;BME280;31529;51.158;7.354;2022-12-11T02:50:32;97321.31;;;2.18;82.72
45247;BME280;31529;51.158;7.354;2022-12-11T02:51:07;97323.16;;;2.17;82.85
45247;BME280;31529;51.158;7.354;2022-12-11T02:51:40;97322.09;;;2.18;83.46
45247;BME280;31529;51.158;7.354;2022-12-11T02:52:13;97314.22;;;2.18;82.87
45247;BME280;31529;51.158;7.354;2022-12-11T02:52:49;97315.81;;;2.19;82.93
45247;BME280;31529;51.158;7.354;2022-12-11T02:53:25;97322.91;;;2.19;83.03
45247;BME280;31529;51.158;7.354;2022-12-11T02:53:59;97319.47;;;2.18;82.88
45247;BME280;31529;51.158;7.354;2022-12-11T02:54:32;97320.28;;;2.19;82.91
45247;BME280;31529;51.158;7.354;2022-12-11T02:55:08;97321.88;;;2.20;83.28
45247;BME280;31529;51.158;7.354;2022-12-11T02:55:41;97321.88;;;2.20;82.84
45247;BME280;31529;51.158;7.354;2022-12-11T02:56:15;97316.59;;;2.20;82.88
45247;BME280;31529;51.158;7.354;2022-12-11T02:56:51;97304.34;;;2.08;82.85
45247;BME280;31529;51.158;7.354;2022-12-11T02:57:32;97312.16;;;2.20;83.00
45247;BME280;31529;51.158;7.354;2022-12-11T02:58:12;97308.47;;;2.21;82.65
45247;BME280;31529;51.158;7.354;2022-12-11T02:58:47;97317.41;;;2.20;82.65
45247;BME280;31529;51.158;7.354;2022-12-11T02:59:25;97308.47;;;2.21;83.67
45247;BME280;31529;51.158;7.354;2022-12-11T03:00:04;97309.75;;;2.19;83.17
45247;BME280;31529;51.158;7.354;2022-12-11T03:00:36;97312.16;;;2.20;82.97
45247;BME280;31529;51.158;7.354;2022-12-11T03:01:07;97305.28;;;2.19;82.66
45247;BME280;31529;51.158;7.354;2022-12-11T03:01:39;97305.28;;;2.19;82.81
45247;BME280;31529;51.158;7.354;2022-12-11T03:02:14;97305.28;;;2.19;82.59
45247;BME280;31529;51.158;7.354;2022-12-11T03:02:46;97310.56;;;2.19;83.24
45247;BME280;31529;51.158;7.354;2022-12-11T03:03:17;97306.91;;;2.20;82.86
45247;BME280;31529;51.158;7.354;2022-12-11T03:03:48;97305.28;;;2.19;82.94
45247;BME280;31529;51.158;7.354;2022-12-11T03:04:19;97304.25;;;2.20;83.09
45247;BME280;31529;51.158;7.354;2022-12-11T03:04:54;97300.81;;;2.20;82.63
45247;BME280;31529;51.158;7.354;2022-12-11T03:05:27;97304.25;;;2.20;83.01
45247;BME280;31529;51.158;7.354;2022-12-11T03:05:59;97303.44;;;2.20;83.38
45247;BME280;31529;51.158;7.354;2022-12-11T03:06:32;97305.28;;;2.19;83.10
45247;BME280;31529;51.158;7.354;2022-12-11T03:07:09;97306.06;;;2.20;83.01
45247;BME280;31529;51.158;7.354;2022-12-11T03:07:45;97303.44;;;2.20;83.28
45247;BME280;31529;51.158;7.354;2022-12-11T03:08:16;97305.84;;;2.21;83.22
45247;BME280;31529;51.158;7.354;2022-12-11T03:08:48;97297.16;;;2.21;82.73
45247;BME280;31529;51.158;7.354;2022-12-11T03:09:21;97310.31;;;2.21;83.26
45247;BME280;31529;51.158;7.354;2022-12-11T03:09:52;97303.19;;;2.21;82.95
45247;BME280;31529;51.158;7.354;2022-12-11T03:10:23;97308.47;;;2.21;83.19
45247;BME280;31529;51.158;7.354;2022-12-11T03:10:55;97307.44;;;2.22;83.61
45247;BME280;31529;51.158;7.354;2022-12-11T03:11:26;97300.56;;;2.21;83.08
45247;BME280;31529;51.158;7.354;2022-12-11T03:11:57;97305.03;;;2.21;82.95